Time;durP1;ratioP1;P1;durP2;ratioP2;P2;SDS_P1;SDS_P2;PMS_P1;PMS_P2;Temp;Humidity;BMP_temperature;BMP_pressure;BME280_temperature;BME280_humidity;BME280_pressure;Samples;Min_cycle;Max_cycle;Signal;HPM_P1;HPM_P2
2023/10/23 00:00:18;;;;;;;0.00;0.00;;;;;;;21.16;100.00;101198.84;10280964;28;20059;-82
2023/10/23 00:05:20;;;;;;;0.00;0.00;;;;;;;20.96;100.00;101187.78;10284092;28;20050;-81
2023/10/23 00:10:21;;;;;;;0.00;0.00;;;;;;;19.89;100.00;101202.81;10283787;28;20069;-81
2023/10/23 00:15:23;;;;;;;0.00;0.00;;;;;;;19.61;100.00;101202.09;10289104;28;20055;-81
2023/10/23 00:20:25;;;;;;;0.08;0.00;;;;;;;20.77;100.00;101196.72;10291921;28;20050;-82
2023/10/23 00:25:26;;;;;;;0.50;0.40;;;;;;;20.15;100.00;101201.69;10275839;28;20526;-81
2023/10/23 00:30:32;;;;;;;0.10;0.10;;;;;;;20.48;100.00;101204.88;10287593;28;20051;-81
2023/10/23 00:35:33;;;;;;;0.00;0.00;;;;;;;19.97;100.00;101213.19;10293951;28;20054;-82
2023/10/23 00:40:35;;;;;;;0.10;0.10;;;;;;;20.79;100.00;101212.41;10294502;28;20043;-82
2023/10/23 00:45:41;;;;;;;0.35;0.30;;;;;;;18.54;100.00;101213.84;10277424;28;20158;-81
2023/10/23 00:50:43;;;;;;;1.13;0.25;;;;;;;19.45;100.00;101214.41;10277263;28;20784;-81
2023/10/23 00:55:46;;;;;;;0.00;0.00;;;;;;;20.41;100.00;101204.06;10293779;28;20050;-81
2023/10/23 01:00:48;;;;;;;0.00;0.00;;;;;;;19.87;100.00;101207.16;10274445;28;20079;-82
2023/10/23 01:05:50;;;;;;;0.00;0.00;;;;;;;19.51;100.00;101214.38;10273677;28;20575;-81
2023/10/23 01:10:52;;;;;;;0.25;0.20;;;;;;;20.68;100.00;101203.78;10293612;28;20039;-81
2023/10/23 01:15:54;;;;;;;0.00;0.00;;;;;;;20.38;100.00;101211.06;10289663;28;20061;-81
2023/10/23 01:20:55;;;;;;;0.20;0.20;;;;;;;20.41;100.00;101201.44;10289102;28;20058;-81
2023/10/23 01:25:57;;;;;;;0.00;0.00;;;;;;;20.41;100.00;101213.66;10285329;28;20426;-81
2023/10/23 01:30:58;;;;;;;0.00;0.00;;;;;;;20.84;100.00;101209.75;10284324;28;20167;-81
2023/10/23 01:36:00;;;;;;;0.00;0.00;;;;;;;19.48;100.00;101209.16;10290587;28;20413;-81
2023/10/23 01:41:02;;;;;;;0.00;0.00;;;;;;;20.31;100.00;101206.78;10279625;28;20047;-81
2023/10/23 01:46:03;;;;;;;0.00;0.00;;;;;;;18.63;100.00;101223.44;10284815;28;20046;-83
2023/10/23 01:51:05;;;;;;;0.03;0.03;;;;;;;19.66;100.00;101232.56;10289686;28;20113;-81
2023/10/23 01:56:08;;;;;;;0.00;0.00;;;;;;;19.77;100.00;101242.09;10289570;28;20058;-82
2023/10/23 02:01:21;;;;;;;0.00;0.00;;;;;;;19.73;100.00;101242.97;10289594;28;20073;-83
2023/10/23 02:06:23;;;;;;;0.00;0.00;;;;;;;19.68;100.00;101255.22;10282212;28;20134;-82
2023/10/23 02:11:25;;;;;;;0.00;0.00;;;;;;;20.33;100.00;101246.88;10304586;28;20509;-82
2023/10/23 02:16:27;;;;;;;0.28;0.10;;;;;;;20.38;100.00;101242.47;10269638;28;20062;-82
2023/10/23 02:21:28;;;;;;;0.00;0.00;;;;;;;19.71;100.00;101257.78;10288069;28;20556;-81
2023/10/23 02:26:30;;;;;;;0.00;0.00;;;;;;;20.06;100.00;101259.34;10281100;28;20047;-82
2023/10/23 02:31:32;;;;;;;0.00;0.00;;;;;;;20.24;100.00;101259.16;10297079;28;20432;-81
2023/10/23 02:36:33;;;;;;;0.00;0.00;;;;;;;20.08;100.00;101255.81;10286453;28;20078;-82
2023/10/23 02:41:35;;;;;;;0.00;0.00;;;;;;;19.65;100.00;101264.81;10286718;28;20063;-83
2023/10/23 02:46:40;;;;;;;0.00;0.00;;;;;;;20.02;100.00;101260.22;10267423;28;20491;-81
2023/10/23 02:51:43;;;;;;;0.00;0.00;;;;;;;20.77;100.00;101256.06;10285970;28;20047;-83
2023/10/23 02:56:45;;;;;;;0.00;0.00;;;;;;;20.79;100.00;101256.94;10289068;28;20510;-82
2023/10/23 03:01:47;;;;;;;0.10;0.10;;;;;;;20.90;100.00;101260.28;10286159;28;20057;-82
2023/10/23 03:06:48;;;;;;;0.00;0.00;;;;;;;20.59;100.00;101260.56;10267073;28;20047;-82
2023/10/23 03:11:50;;;;;;;0.00;0.00;;;;;;;20.82;100.00;101269.13;10286848;28;20051;-82
2023/10/23 03:16:51;;;;;;;0.00;0.00;;;;;;;20.30;100.00;101266.09;10285870;28;20043;-81
2023/10/23 03:21:53;;;;;;;0.65;0.43;;;;;;;20.62;100.00;101264.94;10270074;28;20046;-81
2023/10/23 03:26:55;;;;;;;0.30;0.10;;;;;;;20.31;100.00;101264.34;10285120;28;20651;-82
2023/10/23 03:31:56;;;;;;;0.20;0.13;;;;;;;19.80;100.00;101278.66;10285116;28;20039;-82
2023/10/23 03:36:58;;;;;;;0.05;0.05;;;;;;;20.58;100.00;101269.34;10285397;28;20082;-81
2023/10/23 03:41:59;;;;;;;0.98;0.57;;;;;;;20.13;100.00;101281.94;10268415;28;20129;-82
2023/10/23 03:47:01;;;;;;;0.50;0.43;;;;;;;20.46;100.00;101279.91;10282130;28;20067;-82
2023/10/23 03:52:03;;;;;;;0.63;0.40;;;;;;;20.13;100.00;101276.72;10278612;28;20117;-84
2023/10/23 03:57:04;;;;;;;0.28;0.28;;;;;;;19.95;100.00;101277.72;10287761;28;20057;-81
2023/10/23 04:02:06;;;;;;;0.30;0.30;;;;;;;20.32;100.00;101276.53;10286894;28;20511;-84
2023/10/23 04:07:07;;;;;;;1.27;0.85;;;;;;;20.96;100.00;101268.97;10286074;28;20049;-82
2023/10/23 04:12:09;;;;;;;0.70;0.63;;;;;;;21.27;100.00;101274.69;10284836;28;20062;-84
2023/10/23 04:17:10;;;;;;;0.20;0.20;;;;;;;21.00;100.00;101281.13;10280679;28;20047;-81
2023/10/23 04:22:12;;;;;;;0.98;0.22;;;;;;;20.97;100.00;101275.91;10286888;28;20042;-82
2023/10/23 04:27:14;;;;;;;0.00;0.00;;;;;;;20.57;100.00;101287.66;10273709;28;20055;-82
2023/10/23 04:32:15;;;;;;;0.32;0.32;;;;;;;19.95;100.00;101291.66;10279959;28;20039;-82
2023/10/23 04:37:17;;;;;;;0.55;0.13;;;;;;;20.65;100.00;101284.97;10285724;28;20210;-82
2023/10/23 04:42:18;;;;;;;0.15;0.10;;;;;;;21.17;100.00;101283.56;10278509;28;20093;-82
2023/10/23 04:47:20;;;;;;;0.00;0.00;;;;;;;21.02;100.00;101274.13;10283992;28;20061;-82
2023/10/23 04:52:23;;;;;;;0.20;0.20;;;;;;;20.88;100.00;101271.66;10282811;28;20457;-84
2023/10/23 04:57:24;;;;;;;0.10;0.10;;;;;;;20.69;100.00;101281.44;10290150;28;20047;-82
2023/10/23 05:02:26;;;;;;;0.28;0.28;;;;;;;20.20;100.00;101278.41;10293862;28;20054;-82
2023/10/23 05:07:27;;;;;;;0.10;0.00;;;;;;;19.76;100.00;101279.56;10294661;28;20062;-83
2023/10/23 05:12:29;;;;;;;1.10;0.55;;;;;;;20.31;100.00;101280.03;10293560;28;20088;-82
2023/10/23 05:17:31;;;;;;;0.75;0.30;;;;;;;20.14;100.00;101288.91;10290855;28;20049;-81
2023/10/23 05:22:33;;;;;;;0.00;0.00;;;;;;;19.46;100.00;101298.00;10274561;28;20046;-82
2023/10/23 05:27:36;;;;;;;0.60;0.45;;;;;;;19.57;100.00;101294.47;10267966;28;20065;-82
2023/10/23 05:32:38;;;;;;;0.38;0.28;;;;;;;18.84;100.00;101289.50;10289724;28;20050;-83
2023/10/23 05:37:40;;;;;;;0.17;0.10;;;;;;;19.11;100.00;101282.47;10285871;28;20055;-87
2023/10/23 05:42:42;;;;;;;0.32;0.20;;;;;;;19.05;100.00;101278.16;10290953;28;20047;-82
2023/10/23 05:47:43;;;;;;;0.50;0.45;;;;;;;19.62;100.00;101288.31;10291930;28;20133;-81
2023/10/23 05:52:45;;;;;;;0.28;0.22;;;;;;;20.09;100.00;101285.44;10288694;28;20041;-82
2023/10/23 05:57:47;;;;;;;0.28;0.20;;;;;;;20.40;100.00;101287.81;10282990;28;20139;-85
2023/10/23 06:02:48;;;;;;;0.00;0.00;;;;;;;20.98;100.00;101298.63;10293046;28;20125;-83
2023/10/23 06:07:50;;;;;;;0.25;0.20;;;;;;;20.08;100.00;101299.41;10291727;28;20081;-83
2023/10/23 06:12:51;;;;;;;0.03;0.03;;;;;;;19.74;100.00;101302.22;10288537;28;20522;-84
2023/10/23 06:17:53;;;;;;;0.30;0.15;;;;;;;21.08;100.00;101302.88;10274285;28;20047;-82
2023/10/23 06:22:54;;;;;;;0.13;0.13;;;;;;;19.64;100.00;101315.34;10289425;28;20050;-82
2023/10/23 06:27:57;;;;;;;0.10;0.10;;;;;;;19.75;100.00;101317.88;10288698;28;20055;-82
2023/10/23 06:32:59;;;;;;;0.30;0.22;;;;;;;19.84;100.00;101310.88;10286135;28;20067;-82
2023/10/23 06:38:00;;;;;;;0.00;0.00;;;;;;;18.89;100.00;101324.28;10286455;28;20094;-82
2023/10/23 06:43:02;;;;;;;0.40;0.40;;;;;;;18.70;100.00;101319.09;10286460;28;20046;-83
2023/10/23 06:48:04;;;;;;;0.43;0.28;;;;;;;18.26;100.00;101321.69;10286745;28;20054;-81
2023/10/23 06:53:05;;;;;;;0.47;0.20;;;;;;;18.36;100.00;101329.53;10262708;28;20054;-82
2023/10/23 06:58:07;;;;;;;0.45;0.13;;;;;;;18.62;100.00;101330.41;10287053;28;20043;-81
2023/10/23 07:03:11;;;;;;;1.35;0.32;;;;;;;18.65;100.00;101339.09;10282004;28;20513;-84
2023/10/23 07:08:13;;;;;;;0.65;0.65;;;;;;;18.94;100.00;101330.41;10289723;28;20057;-84
2023/10/23 07:13:15;;;;;;;0.25;0.10;;;;;;;18.08;100.00;101326.06;10290151;28;20505;-84
2023/10/23 07:18:23;;;;;;;0.25;0.10;;;;;;;18.54;100.00;101330.41;10288703;28;20548;-82
2023/10/23 07:23:26;;;;;;;0.75;0.20;;;;;;;19.72;100.00;101322.25;10287884;28;20125;-82
2023/10/23 07:28:28;;;;;;;0.30;0.30;;;;;;;19.83;100.00;101325.69;10287553;28;20054;-83
2023/10/23 07:33:29;;;;;;;0.05;0.05;;;;;;;19.14;100.00;101321.66;10279689;28;20054;-82
2023/10/23 07:38:32;;;;;;;0.00;0.00;;;;;;;20.42;100.00;101327.94;10281316;28;20053;-83
2023/10/23 07:43:33;;;;;;;0.68;0.32;;;;;;;20.29;100.00;101322.78;10272305;28;20051;-83
2023/10/23 07:48:36;;;;;;;0.35;0.35;;;;;;;20.29;100.00;101324.53;10281041;28;20465;-84
2023/10/23 07:53:37;;;;;;;0.00;0.00;;;;;;;19.97;100.00;101329.13;10284675;28;20050;-82
2023/10/23 07:58:39;;;;;;;0.73;0.35;;;;;;;20.80;100.00;101321.50;10285444;28;20066;-82
2023/10/23 08:03:41;;;;;;;0.10;0.10;;;;;;;21.36;100.00;101328.75;10268476;28;20561;-82
2023/10/23 08:08:44;;;;;;;2.40;0.63;;;;;;;20.92;100.00;101339.72;10254563;28;20085;-84
2023/10/23 08:13:46;;;;;;;0.08;0.08;;;;;;;20.50;100.00;101347.06;10289694;28;20046;-82
2023/10/23 08:18:48;;;;;;;1.15;0.50;;;;;;;21.15;100.00;101322.03;10288393;28;20070;-82
2023/10/23 08:23:54;;;;;;;0.70;0.40;;;;;;;19.91;100.00;101318.72;10288388;28;20046;-84
2023/10/23 08:28:55;;;;;;;0.57;0.40;;;;;;;22.52;100.00;101321.00;10281784;28;20055;-82
2023/10/23 08:34:00;;;;;;;0.75;0.52;;;;;;;20.91;100.00;101322.25;10288288;28;20086;-83
2023/10/23 08:39:02;;;;;;;4.15;0.63;;;;;;;21.59;100.00;101319.75;10286152;28;20051;-83
2023/10/23 08:44:05;;;;;;;1.92;0.77;;;;;;;23.34;100.00;101307.22;10286157;28;20051;-83
2023/10/23 08:49:07;;;;;;;0.55;0.45;;;;;;;20.71;100.00;101321.56;10292206;28;20050;-81
2023/10/23 08:54:16;;;;;;;0.20;0.15;;;;;;;22.34;100.00;101307.25;10292411;28;20042;-84
2023/10/23 08:59:17;;;;;;;0.20;0.20;;;;;;;21.59;100.00;101311.88;10291368;28;20047;-81
2023/10/23 09:04:19;;;;;;;0.63;0.55;;;;;;;22.72;100.00;101300.50;10291024;28;20105;-81
2023/10/23 09:09:21;;;;;;;0.95;0.50;;;;;;;22.84;100.00;101296.78;10291522;28;20046;-83
2023/10/23 09:14:30;;;;;;;1.13;0.55;;;;;;;21.81;100.00;101302.81;10294509;28;20061;-83
2023/10/23 09:19:36;;;;;;;1.90;0.93;;;;;;;21.11;100.00;101294.97;10296911;28;20059;-82
2023/10/23 09:24:38;;;;;;;1.92;0.80;;;;;;;22.04;100.00;101299.00;10294289;28;20051;-83
2023/10/23 09:29:40;;;;;;;1.00;0.70;;;;;;;22.96;100.00;101286.03;10287053;28;20785;-84
2023/10/23 09:34:42;;;;;;;1.15;0.82;;;;;;;22.29;100.00;101293.34;10289820;28;20079;-84
2023/10/23 09:39:44;;;;;;;1.73;0.98;;;;;;;21.77;100.00;101295.91;10288881;28;20049;-84
2023/10/23 09:44:46;;;;;;;2.17;1.15;;;;;;;23.16;100.00;101291.78;10290612;28;20403;-83
2023/10/23 09:49:48;;;;;;;2.97;1.20;;;;;;;21.90;100.00;101303.59;10282856;28;20054;-84
2023/10/23 09:55:05;;;;;;;1.10;1.00;;;;;;;23.38;100.00;101293.09;10278075;28;20055;-84
2023/10/23 10:00:16;;;;;;;1.48;0.52;;;;;;;23.25;100.00;101296.88;10288357;28;20473;-80
2023/10/23 10:05:37;;;;;;;0.98;0.75;;;;;;;23.82;100.00;101298.25;10275610;28;20503;-84
2023/10/23 10:10:39;;;;;;;1.95;1.20;;;;;;;22.60;100.00;101300.72;10288520;28;20046;-84
2023/10/23 10:15:43;;;;;;;1.23;1.13;;;;;;;23.95;100.00;101288.31;10287737;28;20430;-84
2023/10/23 10:20:47;;;;;;;0.52;0.43;;;;;;;22.84;100.00;101280.13;10292822;28;20043;-85
2023/10/23 10:25:49;;;;;;;3.05;1.30;;;;;;;22.42;100.00;101278.28;10295546;28;20497;-86
2023/10/23 10:30:51;;;;;;;1.60;0.98;;;;;;;23.00;100.00;101273.69;10292670;28;20043;-86
2023/10/23 10:36:04;;;;;;;2.00;1.05;;;;;;;24.39;100.00;101273.19;10290001;28;20054;-84
2023/10/23 10:41:19;;;;;;;2.33;1.23;;;;;;;24.13;100.00;101275.63;10259403;28;20417;-84
2023/10/23 10:46:25;;;;;;;2.08;1.35;;;;;;;24.55;100.00;101264.88;10289993;28;20051;-85
2023/10/23 10:51:27;;;;;;;1.50;0.77;;;;;;;24.23;100.00;101261.34;10276721;28;20042;-83
2023/10/23 10:56:30;;;;;;;3.60;1.10;;;;;;;23.93;100.00;101253.31;10271062;28;20524;-85
2023/10/23 11:01:32;;;;;;;3.40;1.08;;;;;;;25.09;100.00;101247.59;10286743;28;20053;-83
2023/10/23 11:06:35;;;;;;;0.30;0.22;;;;;;;25.11;100.00;101232.59;10288271;28;20045;-83
2023/10/23 11:11:37;;;;;;;2.17;1.02;;;;;;;24.32;100.00;101212.84;10285656;28;20046;-83
2023/10/23 11:16:38;;;;;;;0.05;0.03;;;;;;;25.19;100.00;101201.59;10269868;28;20042;-83
2023/10/23 11:21:40;;;;;;;1.55;0.50;;;;;;;25.34;100.00;101204.66;10269988;28;20039;-83
2023/10/23 11:26:44;;;;;;;0.95;0.55;;;;;;;24.31;100.00;101190.03;10292943;28;20059;-84
2023/10/23 11:31:46;;;;;;;1.00;0.35;;;;;;;24.01;100.00;101193.47;10289389;28;20054;-83
2023/10/23 11:36:49;;;;;;;0.22;0.22;;;;;;;24.78;100.00;101184.38;10283715;28;20150;-84
2023/10/23 11:41:56;;;;;;;1.55;0.80;;;;;;;24.28;100.00;101185.72;10283712;28;20050;-84
2023/10/23 11:46:58;;;;;;;0.10;0.10;;;;;;;25.21;100.00;101177.81;10279217;28;20055;-85
2023/10/23 11:52:01;;;;;;;0.65;0.17;;;;;;;24.45;100.00;101173.88;10266377;28;20378;-83
2023/10/23 11:57:03;;;;;;;0.00;0.00;;;;;;;24.63;100.00;101165.44;10275646;28;20054;-83
2023/10/23 12:02:04;;;;;;;0.85;0.22;;;;;;;25.57;100.00;101155.59;10271943;28;20540;-82
2023/10/23 12:07:06;;;;;;;0.55;0.35;;;;;;;26.36;100.00;101131.81;10279911;28;20046;-82
2023/10/23 12:12:08;;;;;;;0.10;0.10;;;;;;;26.60;100.00;101125.63;10284972;28;20053;-80
2023/10/23 12:17:09;;;;;;;0.85;0.47;;;;;;;25.56;100.00;101128.38;10283973;28;20051;-81
2023/10/23 12:22:11;;;;;;;0.20;0.10;;;;;;;25.25;100.00;101126.72;10284191;28;20093;-84
2023/10/23 12:27:12;;;;;;;0.65;0.40;;;;;;;26.00;100.00;101105.78;10277299;28;20083;-84
2023/10/23 12:32:14;;;;;;;0.45;0.17;;;;;;;24.95;100.00;101105.69;10268708;28;20061;-84
2023/10/23 12:37:37;;;;;;;0.05;0.03;;;;;;;24.80;100.00;101101.72;10284599;28;20166;-83
2023/10/23 12:42:39;;;;;;;0.40;0.30;;;;;;;25.16;100.00;101090.09;10277241;28;20043;-83
2023/10/23 12:47:41;;;;;;;0.20;0.20;;;;;;;25.01;100.00;101099.38;10284597;28;20059;-85
2023/10/23 12:52:43;;;;;;;0.77;0.45;;;;;;;25.37;100.00;101093.81;10283224;28;20047;-83
2023/10/23 12:57:48;;;;;;;0.32;0.32;;;;;;;25.42;100.00;101085.78;10266006;28;20046;-82
2023/10/23 13:02:50;;;;;;;0.30;0.30;;;;;;;24.57;100.00;101081.34;10280162;28;20140;-82
2023/10/23 13:07:52;;;;;;;1.40;0.82;;;;;;;25.54;100.00;101068.69;10278233;28;20135;-82
2023/10/23 13:12:53;;;;;;;0.57;0.30;;;;;;;24.61;100.00;101069.78;10270083;28;20097;-82
2023/10/23 13:17:56;;;;;;;0.50;0.30;;;;;;;25.56;100.00;101062.44;10281142;28;20059;-82
2023/10/23 13:22:57;;;;;;;0.15;0.15;;;;;;;25.09;100.00;101056.94;10289901;28;20055;-83
2023/10/23 13:27:59;;;;;;;0.38;0.30;;;;;;;25.21;100.00;101053.88;10285159;28;20422;-82
2023/10/23 13:33:01;;;;;;;0.00;0.00;;;;;;;25.29;100.00;101036.03;10285607;28;20035;-82
2023/10/23 13:38:03;;;;;;;2.20;0.20;;;;;;;25.93;100.00;101034.75;10288312;28;20046;-82
2023/10/23 13:43:05;;;;;;;0.00;0.00;;;;;;;25.04;100.00;101017.53;10288826;28;20114;-82
2023/10/23 13:48:07;;;;;;;0.22;0.20;;;;;;;25.08;100.00;101000.72;10286913;28;20051;-83
2023/10/23 13:53:08;;;;;;;0.10;0.10;;;;;;;24.60;100.00;100996.09;10289011;28;20047;-82
2023/10/23 13:58:10;;;;;;;1.38;0.45;;;;;;;24.57;100.00;100999.69;10260118;28;20525;-83
2023/10/23 14:03:12;;;;;;;0.75;0.40;;;;;;;24.12;100.00;100997.53;10287620;28;20620;-83
2023/10/23 14:08:13;;;;;;;0.20;0.15;;;;;;;24.79;100.00;100991.13;10286747;28;20066;-82
2023/10/23 14:13:15;;;;;;;2.83;1.20;;;;;;;24.02;100.00;100984.63;10287166;28;20057;-82
2023/10/23 14:18:17;;;;;;;0.63;0.40;;;;;;;24.50;100.00;100985.00;10288212;28;20125;-83
2023/10/23 14:23:19;;;;;;;0.10;0.00;;;;;;;24.42;100.00;100987.00;10288118;28;20391;-82
2023/10/23 14:28:20;;;;;;;0.52;0.22;;;;;;;23.91;100.00;100976.16;10275445;28;20668;-82
2023/10/23 14:33:22;;;;;;;0.65;0.55;;;;;;;24.28;100.00;100975.13;10285734;28;20046;-83
2023/10/23 14:38:23;;;;;;;1.02;0.43;;;;;;;24.27;100.00;100967.28;10286152;28;20474;-82
2023/10/23 14:43:27;;;;;;;0.63;0.57;;;;;;;24.20;100.00;100956.06;10287357;28;20461;-82
2023/10/23 14:48:28;;;;;;;0.82;0.40;;;;;;;24.80;100.00;100951.56;10287648;28;20560;-82
2023/10/23 14:53:31;;;;;;;1.20;0.73;;;;;;;25.34;100.00;100941.84;10281682;28;20050;-82
2023/10/23 14:58:33;;;;;;;0.85;0.40;;;;;;;25.46;100.00;100930.03;10284500;28;20046;-82
2023/10/23 15:03:36;;;;;;;0.20;0.20;;;;;;;24.77;100.00;100919.19;10271597;28;20070;-83
2023/10/23 15:08:38;;;;;;;0.52;0.50;;;;;;;25.58;100.00;100917.28;10281602;28;20043;-83
2023/10/23 15:13:41;;;;;;;0.68;0.52;;;;;;;23.71;100.00;100916.22;10275008;28;20105;-83
2023/10/23 15:18:42;;;;;;;0.88;0.45;;;;;;;23.26;100.00;100905.19;10288194;28;20110;-83
2023/10/23 15:23:44;;;;;;;0.43;0.38;;;;;;;23.31;100.00;100894.56;10289992;28;20051;-83
2023/10/23 15:28:46;;;;;;;0.25;0.25;;;;;;;23.98;100.00;100883.03;10283586;28;20058;-83
2023/10/23 15:33:47;;;;;;;0.63;0.35;;;;;;;23.23;100.00;100875.50;10287919;28;20054;-83
2023/10/23 15:38:49;;;;;;;1.42;0.45;;;;;;;23.57;100.00;100869.28;10284540;28;20051;-84
2023/10/23 15:43:53;;;;;;;0.85;0.40;;;;;;;23.36;100.00;100850.59;10276183;28;20082;-83
2023/10/23 15:48:54;;;;;;;1.08;0.68;;;;;;;23.01;100.00;100841.06;10287611;28;20043;-84
2023/10/23 15:53:57;;;;;;;1.40;1.10;;;;;;;23.33;100.00;100834.94;10286358;28;20050;-82
2023/10/23 15:58:58;;;;;;;0.68;0.30;;;;;;;23.00;100.00;100834.91;10287270;28;20509;-82
2023/10/23 16:04:00;;;;;;;0.68;0.68;;;;;;;22.78;100.00;100825.00;10289752;28;20043;-83
2023/10/23 16:09:02;;;;;;;0.70;0.43;;;;;;;23.35;100.00;100825.22;10290727;28;20818;-84
2023/10/23 16:14:25;;;;;;;0.70;0.47;;;;;;;22.57;100.00;100822.91;10271988;28;20514;-84
2023/10/23 16:19:26;;;;;;;0.52;0.47;;;;;;;22.67;100.00;100827.06;10287477;28;20050;-85
2023/10/23 16:24:31;;;;;;;1.80;0.60;;;;;;;23.09;100.00;100821.53;10290491;28;20051;-86
2023/10/23 16:29:33;;;;;;;0.47;0.43;;;;;;;23.19;100.00;100818.69;10287141;28;20050;-85
2023/10/23 16:34:37;;;;;;;1.85;0.55;;;;;;;22.82;100.00;100815.25;10272372;28;20057;-83
2023/10/23 16:39:39;;;;;;;4.55;1.35;;;;;;;22.58;100.00;100816.78;10284063;28;20062;-83
2023/10/23 16:44:41;;;;;;;0.77;0.77;;;;;;;22.45;100.00;100806.56;10279653;28;20051;-84
2023/10/23 16:49:56;;;;;;;6.22;0.80;;;;;;;22.67;100.00;100803.41;10285087;28;20057;-83
2023/10/23 16:54:57;;;;;;;1.33;1.02;;;;;;;22.53;100.00;100805.50;10287842;28;20158;-83
2023/10/23 16:59:59;;;;;;;1.63;0.43;;;;;;;22.76;100.00;100811.03;10288902;28;20057;-83
2023/10/23 17:05:01;;;;;;;2.97;1.17;;;;;;;22.85;100.00;100819.56;10274905;28;20047;-83
2023/10/23 17:10:04;;;;;;;3.00;1.25;;;;;;;22.73;100.00;100807.63;10290914;28;20176;-83
2023/10/23 17:15:05;;;;;;;1.27;1.17;;;;;;;22.63;100.00;100800.00;10291896;28;20053;-83
2023/10/23 17:20:08;;;;;;;0.88;0.50;;;;;;;22.15;100.00;100793.28;10289647;28;20047;-83
2023/10/23 17:25:11;;;;;;;1.17;0.63;;;;;;;22.17;100.00;100785.38;10280871;28;20063;-85
2023/10/23 17:30:13;;;;;;;1.75;0.95;;;;;;;22.13;100.00;100753.13;10296382;28;20074;-84
2023/10/23 17:35:15;;;;;;;0.60;0.45;;;;;;;22.60;100.00;100749.34;10278251;28;20182;-83
2023/10/23 17:40:17;;;;;;;0.77;0.47;;;;;;;22.56;100.00;100740.69;10287617;28;20047;-84
2023/10/23 17:45:18;;;;;;;5.25;0.93;;;;;;;22.11;100.00;100718.19;10287717;28;20051;-83
2023/10/23 17:50:20;;;;;;;1.10;1.00;;;;;;;22.01;100.00;100716.66;10269668;28;20051;-83
2023/10/23 17:55:21;;;;;;;0.95;0.40;;;;;;;21.94;100.00;100715.97;10292733;28;20050;-83
2023/10/23 18:00:25;;;;;;;1.67;0.77;;;;;;;22.07;100.00;100703.44;10282318;28;20050;-84
2023/10/23 18:05:26;;;;;;;1.80;0.52;;;;;;;22.55;100.00;100702.22;10289174;28;20137;-83
2023/10/23 18:10:28;;;;;;;2.75;0.77;;;;;;;21.96;100.00;100689.69;10290372;28;20122;-83
2023/10/23 18:15:29;;;;;;;0.57;0.57;;;;;;;22.03;100.00;100680.78;10288901;28;20078;-82
2023/10/23 18:20:31;;;;;;;1.23;0.88;;;;;;;22.37;100.00;100686.91;10288824;28;20050;-81
2023/10/23 18:25:33;;;;;;;0.32;0.32;;;;;;;22.53;100.00;100674.25;10288555;28;20047;-82
2023/10/23 18:30:35;;;;;;;1.27;0.88;;;;;;;22.75;100.00;100672.75;10292294;28;20069;-83
2023/10/23 18:35:37;;;;;;;1.98;0.95;;;;;;;22.11;100.00;100685.84;10276460;28;20081;-83
2023/10/23 18:40:40;;;;;;;0.80;0.52;;;;;;;23.04;100.00;100684.19;10274415;28;20576;-83
2023/10/23 18:45:43;;;;;;;1.92;1.13;;;;;;;21.71;100.00;100675.44;10302134;28;20055;-83
2023/10/23 18:50:45;;;;;;;1.80;0.82;;;;;;;21.50;100.00;100674.16;10273022;28;20055;-83
2023/10/23 18:55:46;;;;;;;1.10;0.60;;;;;;;22.19;100.00;100668.13;10290443;28;20421;-82
2023/10/23 19:00:48;;;;;;;1.45;1.13;;;;;;;22.06;100.00;100667.59;10262020;28;20135;-83
2023/10/23 19:05:57;;;;;;;0.13;0.13;;;;;;;22.41;100.00;100663.19;10288697;28;20074;-81
2023/10/23 19:10:58;;;;;;;0.98;0.40;;;;;;;22.09;100.00;100664.03;10286422;28;20500;-82
2023/10/23 19:16:04;;;;;;;0.73;0.43;;;;;;;22.31;100.00;100666.94;10286784;28;20058;-81
2023/10/23 19:21:11;;;;;;;0.43;0.35;;;;;;;22.64;100.00;100661.69;10268551;28;20070;-81
2023/10/23 19:26:14;;;;;;;1.10;0.57;;;;;;;22.47;100.00;100672.69;10284395;28;20053;-82
2023/10/23 19:31:22;;;;;;;0.57;0.30;;;;;;;22.14;100.00;100672.63;10285176;28;20055;-82
2023/10/23 19:36:25;;;;;;;0.20;0.20;;;;;;;22.37;100.00;100672.03;10281857;28;20125;-83
2023/10/23 19:41:47;;;;;;;1.67;1.25;;;;;;;22.72;100.00;100654.47;10288830;28;20093;-82
2023/10/23 19:46:49;;;;;;;0.50;0.40;;;;;;;22.57;100.00;100655.75;10280439;28;20042;-83
2023/10/23 19:51:53;;;;;;;0.47;0.43;;;;;;;21.37;100.00;100649.13;10288159;28;20035;-82
2023/10/23 19:56:55;;;;;;;0.22;0.10;;;;;;;21.36;100.00;100624.69;10274772;28;20043;-83
2023/10/23 20:01:59;;;;;;;0.32;0.20;;;;;;;21.68;100.00;100627.47;10287232;28;20058;-82
2023/10/23 20:07:01;;;;;;;0.38;0.32;;;;;;;21.31;100.00;100620.44;10285215;28;20126;-84
2023/10/23 20:12:03;;;;;;;3.83;0.60;;;;;;;21.29;100.00;100623.13;10270244;28;20510;-84
2023/10/23 20:17:05;;;;;;;0.22;0.15;;;;;;;22.06;100.00;100615.13;10284960;28;20054;-84
2023/10/23 20:22:06;;;;;;;3.13;0.22;;;;;;;21.42;100.00;100597.47;10261615;28;20065;-83
2023/10/23 20:27:09;;;;;;;0.28;0.20;;;;;;;21.54;100.00;100591.94;10284965;28;20070;-83
2023/10/23 20:32:11;;;;;;;0.50;0.50;;;;;;;22.03;100.00;100584.59;10292370;28;20757;-82
2023/10/23 20:37:13;;;;;;;0.15;0.15;;;;;;;21.73;100.00;100581.00;10286517;28;20046;-84
2023/10/23 20:42:15;;;;;;;0.43;0.38;;;;;;;21.45;100.00;100570.31;10294411;28;20050;-83
2023/10/23 20:47:16;;;;;;;0.25;0.25;;;;;;;21.36;100.00;100566.16;10279248;28;20485;-83
2023/10/23 20:52:18;;;;;;;0.10;0.10;;;;;;;21.38;100.00;100544.25;10294343;28;20051;-83
2023/10/23 20:57:19;;;;;;;0.10;0.10;;;;;;;21.31;100.00;100531.38;10276628;28;20047;-83
2023/10/23 21:02:21;;;;;;;0.30;0.10;;;;;;;21.70;100.00;100520.81;10284620;28;20039;-83
2023/10/23 21:07:23;;;;;;;0.15;0.08;;;;;;;20.64;100.00;100514.53;10293918;28;21619;-84
2023/10/23 21:12:25;;;;;;;0.70;0.38;;;;;;;21.00;100.00;100504.16;10290295;28;20568;-83
2023/10/23 21:17:27;;;;;;;0.08;0.08;;;;;;;21.37;100.00;100497.16;10291615;28;20047;-82
2023/10/23 21:22:28;;;;;;;1.27;0.20;;;;;;;21.04;100.00;100486.59;10279619;28;20057;-82
2023/10/23 21:27:30;;;;;;;0.10;0.10;;;;;;;21.14;100.00;100468.94;10292080;28;20050;-83
2023/10/23 21:32:32;;;;;;;0.05;0.03;;;;;;;20.59;100.00;100449.22;10280856;28;20038;-83
2023/10/23 21:37:33;;;;;;;0.10;0.10;;;;;;;21.21;100.00;100445.13;10290920;28;20043;-83
2023/10/23 21:42:35;;;;;;;2.08;1.08;;;;;;;20.80;100.00;100436.56;10290717;28;20113;-84
2023/10/23 21:47:36;;;;;;;0.00;0.00;;;;;;;21.03;100.00;100422.06;10297517;28;20062;-83
2023/10/23 21:52:38;;;;;;;0.20;0.20;;;;;;;21.12;100.00;100405.22;10297891;28;20421;-84
2023/10/23 21:57:40;;;;;;;0.00;0.00;;;;;;;20.78;100.00;100412.19;10283323;28;20070;-84
2023/10/23 22:02:42;;;;;;;1.30;0.13;;;;;;;20.85;100.00;100398.03;10293595;28;20045;-83
2023/10/23 22:07:44;;;;;;;0.03;0.03;;;;;;;20.40;100.00;100372.03;10293547;28;20050;-83
2023/10/23 22:12:46;;;;;;;0.03;0.03;;;;;;;21.14;100.00;100367.63;10276755;28;20049;-83
2023/10/23 22:17:48;;;;;;;0.10;0.10;;;;;;;20.49;100.00;100356.13;10292780;28;20050;-83
2023/10/23 22:22:50;;;;;;;0.08;0.08;;;;;;;20.42;100.00;100325.78;10290392;28;20409;-83
2023/10/23 22:27:51;;;;;;;0.05;0.05;;;;;;;20.49;100.00;100324.75;10289082;28;20043;-83
2023/10/23 22:32:53;;;;;;;0.45;0.30;;;;;;;21.19;100.00;100318.56;10272367;28;20070;-83
2023/10/23 22:38:14;;;;;;;0.05;0.05;;;;;;;20.91;100.00;100321.09;10287862;28;20047;-84
2023/10/23 22:43:16;;;;;;;0.15;0.15;;;;;;;21.24;100.00;100306.22;10288808;28;20075;-82
2023/10/23 22:48:17;;;;;;;0.17;0.13;;;;;;;20.48;100.00;100296.84;10312861;28;20051;-85
2023/10/23 22:53:22;;;;;;;0.30;0.28;;;;;;;21.27;100.00;100291.31;10298416;28;20077;-85